首页
METAR-TAF:

METAR-TAF

机场 :

Double Eagle II Airport

阿布奎基, 新墨西哥州, 美国

纬度: 35-08-42N, 经度: 106-47-42W, 海拔: 1779米

当前天气观测

该预报发布于20分钟前的21:47 UTC
风速16节,风向西转西南,有时为21节阵风
温度 25°C
湿度 9%
气压 1016 hPa
能見度: 16.1公里
天空无云

METAR: KAEG 172147Z 24016G21KT 10SM CLR 25/M10 A3000

时间: 16:07 (22:07 UTC)

预报

该预报发布于35分钟前的21:32 UTC
预报有效从17日的 21点(UTC)到 18日的 18点(UTC)
风速14节,风向西转西南,有时为24节阵风
能見度: 10公里
天空无云
从 18日的 0200点(UTC)
风速8节,风向西
能見度: 10公里
天空无云
从 18日的 1100点(UTC)
风速5节,风向多变
能見度: 10公里
天空无云

TAF: KAEG 172132Z 1721/1818 24014G24KT P6SM SKC FM180200 28008KT P6SM SKC FM181100 VRB05KT P6SM SKC

超过4000个机场的气象观测和天气预报(METAR&TAF报告)。

可查询的气象台以黄色和红色小点在地图上表示。

将鼠标移到小点上方,可查看气象台名称。

然后点击查看天气观测和预报。

如需切换地图:点击带黑十字的绿色按钮放大地图;点击带横线的绿色按钮缩小地图;或者点击绿色箭头查看邻近地区的地图。


METAR-TAF: